Blowing Sand Mountains, Nevada Weather observations

Data are for observation ending at time listed.
 Day   Time    Ave.   Ave.  Ave.  Vector   Max.   Stn.    Total    Solar   Ave.  
  of    of     Air    Rel.  Wind   Wind    Wind   Baro.  Precip.   Rad.    Soil  
Year   Day     Temp.  Hum.  Speed  Dir.    Gust   Pres.                    Temp. 
2017   (PST)    F      %     mph   deg.    mph     mb.     in.     W/m2     F   
------------------------------------------------------------------------------
  35   20:30   46.2    40    2.3   147      5.6    880.9     0.00       0     41.8
  35   20:40   46.7    39    0.0     0      0.0    881.0     0.00       0     41.9
  35   20:50   47.4    37    0.1    86      1.8    880.9     0.00       0     41.9
  35   21:00   46.8    40    3.9   359      5.3    880.9     0.00       0     41.9
  35   21:10   45.0    45    2.7   350      7.2    880.9     0.00       0     42.0
  35   21:20   43.5    48    3.2   172      6.2    880.9     0.00       0     42.0
  35   21:30   41.1    52    1.1   133      4.1    881.0     0.00       0     42.0
  35   21:40   39.1    56    2.9   141      6.1    880.9     0.00       0     42.0
  35   21:50   37.9    59    6.4   160     10.2    880.8     0.00       0     42.0
  35   22:00   38.0    65    8.5   159     10.9    880.7     0.00       0     42.0
  35   22:10   37.2    68    7.6   157     10.0    880.7     0.00       0     42.0
  35   22:20   36.8    69    5.1    91     10.7    881.0     0.00       0     42.0
  35   22:30   40.6    57    0.7   129      6.5    881.3     0.00       0     42.0
  35   22:40   40.2    54    0.6    25      4.8    881.5     0.00       0     42.0
  35   22:50   38.0    62    2.5   358      5.3    881.6     0.00       0     42.0
  35   23:00   37.2    64    0.6   144      2.7    881.7     0.00       0     42.1
  35   23:10   37.0    64    0.0     0      0.0    881.8     0.00       0     42.1
  35   23:20   36.2    65    0.2   209      3.1    881.8     0.00       0     42.1
  35   23:30   37.4    65    1.1   194      3.5    881.8     0.00       0     42.1
  35   23:40   36.4    66    1.8    34      4.8    881.8     0.00       0     42.1
  35   23:50   36.3    68    0.0     0      0.0    881.8     0.00       0     42.1
  36    0:00   35.3    67    0.0     0      0.0    881.7     0.00       0     42.1
  36    0:10   34.1    68    1.1   124      4.3    881.6     0.00       0     42.1
  36    0:20   33.9    69    1.5   144      5.0    881.5     0.00       0     42.1
  36    0:30   33.0    70    0.8   145      4.2    881.4     0.00       0     42.1
  36    0:40   31.3    72    0.0     0      0.0    881.2     0.00       0     42.0
  36    0:50   30.2    75    3.7   161      5.3    881.2     0.00       0     42.0
  36    1:00   30.7    78    4.7   146      6.2    881.2     0.00       0     42.0
  36    1:10   30.7    78    1.5    31      5.1    881.3     0.00       0     42.0
  36    1:20   30.2    78    0.0     0      0.0    881.2     0.00       0     42.0
  36    1:30   29.9    78    0.0     0      0.0    881.2     0.00       0     42.0
  36    1:40   29.8    78    0.0     0      0.0    881.1     0.00       0     41.9
  36    1:50   30.0    79    0.3    75      3.2    881.1     0.00       0     41.9
  36    2:00   29.5    78    0.3   189      4.1    881.2     0.00       0     41.9
  36    2:10   29.0    80    1.0   190      3.9    881.2     0.00       0     41.9
  36    2:20   28.5    81    0.5    73      3.1    881.2     0.00       0     41.9
  36    2:30   27.8    82    0.0     0      0.0    881.3     0.00       0     41.8
  36    2:40   28.1    83    0.0     0      0.0    881.2     0.00       0     41.8
  36    2:50   28.5    85    0.2    93      2.9    881.1     0.00       0     41.8
  36    3:00   28.5    84    0.0     0      0.0    881.0     0.00       0     41.8
  36    3:10   27.3    85    0.0    99      0.6    881.0     0.00       0     41.8
  36    3:20   26.7    86    0.0     0      0.0    880.9     0.00       0     41.7
  36    3:30   26.9    87    1.9    86      4.4    880.8     0.00       0     41.7
  36    3:40   26.7    87    0.0     0      0.0    880.5     0.00       0     41.6
  36    3:50   26.5    88    0.0     0      0.0    880.2     0.00       0     41.6
  36    4:00   26.7    88    0.0     0      0.0    880.1     0.00       0     41.6
  36    4:10   26.7    89    0.0     0      0.0    880.0     0.00       0     41.6
  36    4:20   25.5    88    0.0     0      0.0    880.0     0.00       0     41.5
  36    4:30   24.5    88    0.0     0      0.0    879.9     0.00       0     41.5
  36    4:40   24.4    89    0.0     0      0.0    880.1     0.00       0     41.5
  36    4:50   25.3    90    0.0     0      0.0    880.1     0.00       0     41.4
  36    5:00   25.8    90    0.0     0      0.0    880.0     0.00       0     41.4
  36    5:10   28.0    93    4.2    99      7.0    880.0     0.00       0     41.4
  36    5:20   30.8    92    4.0    90      6.6    879.9     0.00       0     41.3
  36    5:30   29.3    89    3.9   190      7.4    879.9     0.00       0     41.3
  36    5:40   25.8    88    3.5   228      6.6    879.8     0.00       0     41.3
  36    5:50   24.7    89    0.1   231      0.9    879.8     0.00       0     41.2
  36    6:00   24.6    90    0.2    32      2.9    879.8     0.00       0     41.2
  36    6:10   24.9    90    0.0     0      0.0    879.9     0.00       0     41.2
  36    6:20   25.3    91    0.0     0      0.0    879.8     0.00       0     41.1
  36    6:30   26.9    93    1.4   108      5.3    879.7     0.00       0     41.1
  36    6:40   28.6    94    3.5   108      5.0    879.5     0.00       0     41.1
  36    6:50   29.8    93    2.1   111      5.6    879.6     0.00       0     41.0
  36    7:00   28.7    92    0.6   271      3.6    879.6     0.00       2     41.0
  36    7:10   29.1    92    0.0     0      0.0    879.7     0.00       5     41.0
  36    7:20   29.5    93    1.9   138      6.4    879.9     0.00      12     40.9
  36    7:30   30.3    92    0.1   116      2.5    880.0     0.00      13     40.9
  36    7:40   30.2    92    0.0    76      0.1    879.9     0.00      24     40.8
  36    7:50   31.6    93    4.3   128      7.3    879.9     0.00      44     40.8
  36    8:00   33.4    90    5.4   125      7.4    879.9     0.00      59     40.8
  36    8:10   34.1    88    5.6   114      8.3    879.7     0.00      65     40.8
  36    8:20   34.7    86    7.0   123      9.9    879.7     0.00      72     40.7
  36    8:30   35.7    84    4.5   123      8.3    879.7     0.00      78     40.7
  36    8:40   36.2    83    3.2   119      6.2    879.5     0.00      92     40.7
  36    8:50   37.1    81    4.5   146      6.6    879.4     0.00      93     40.6
  36    9:00   37.5    80    5.4   149      7.6    879.4     0.00     111     40.6
  36    9:10   38.1    80    4.4   147      7.1    879.3     0.00     165     40.6
  36    9:20   39.3    78    5.2   159      9.0    879.3     0.00     189     40.5
  36    9:30   40.3    75    7.0   152      9.6    879.2     0.00     175     40.5
  36    9:40   41.3    73    6.7   148     11.2    879.1     0.00     190     40.5
  36    9:50   43.0    69    9.4   152     12.7    878.9     0.00     362     40.5
  36   10:00   44.9    66    7.3   166     10.3    878.8     0.00     397     40.4
  36   10:10   46.9    62    7.6   163     11.3    878.8     0.00     511     40.4
  36   10:20   48.1    58    8.6   166     13.7    878.7     0.00     355     40.3
  36   10:30   48.7    55    8.1   169     11.8    878.5     0.00     200     40.3
  36   10:40   49.1    54    8.5   166     13.2    878.3     0.00     417     40.3
  36   10:50   51.3    51   11.1   164     14.4    878.2     0.00     616     40.3
  36   11:00   52.4    48   11.1   166     15.6    878.0     0.00     500     40.2
  36   11:10   52.2    48   11.0   181     15.6    877.9     0.00     241     40.2
  36   11:20   52.0    47   11.9   182     15.9    877.7     0.00     217     40.3
  36   11:30   52.3    46   11.8   179     15.8    877.3     0.00     201     40.2
  36   11:40   52.7    46   11.8   184     14.8    877.1     0.00     258     40.2
  36   11:50   53.7    44   11.7   180     16.1    876.9     0.00     388     40.2
  36   12:00   54.6    42   11.6   187     15.7    876.6     0.00     470     40.2
  36   12:10   54.9    41   11.5   189     17.2    876.4     0.00     435     40.2
  36   12:20   55.2    41   11.1   202     15.3    876.2     0.00     445     40.2
  36   12:30   55.0    42   10.3   204     15.3    875.9     0.00     370     40.2
  36   12:40   55.0    41   10.6   203     15.3    875.7     0.00     366     40.2
  36   12:50   54.8    40   11.3   178     15.6    875.4     0.00     303     40.2
  36   13:00   54.8    41   11.0   174     16.0    875.0     0.00     249     40.2
  36   13:10   54.7    41   11.8   169     15.3    874.7     0.00     251     40.2
  36   13:20   55.1    40    9.9   172     14.0    874.5     0.00     257     40.2
  36   13:30   55.5    39   10.5   165     14.3    874.2     0.00     252     40.2
  36   13:40   56.0    38   11.8   166     16.0    873.8     0.00     272     40.2
  36   13:50   56.7    37   11.2   146     16.9    873.5     0.00     272     40.3
  36   14:00   56.1    39   12.9   118     18.1    873.2     0.00     229     40.3
  36   14:10   55.8    39   14.7   118     19.6    872.9     0.00     198     40.3
  36   14:20   55.8    39   14.7   115     20.2    872.7     0.00     195     40.4
  36   14:30   55.8    38   15.9   111     21.5    872.6     0.00     187     40.4
  36   14:40   55.7    39   14.5   108     20.5    872.5     0.00     154     40.4
  36   14:50   54.9    41   15.7   116     21.2    872.4     0.00     120     40.4
  36   15:00   54.3    42   16.1   117     24.6    872.2     0.00     110     40.5
  36   15:10   53.9    43   17.3   112     24.1    872.1     0.00     116     40.5
  36   15:20   53.6    43   18.1   111     25.6    871.9     0.00     130     40.5
  36   15:30   53.6    43   17.2   120     24.0    871.7     0.00     121     40.6
  36   15:40   53.5    44   18.2   118     26.6    871.4     0.00     127     40.6
  36   15:50   54.2    42   19.7   114     27.0    871.0     0.00     256     40.7
  36   16:00   54.7    40   18.4   121     27.5    870.9     0.00      92     40.7
  36   16:10   54.7    39   17.5   116     25.9    870.8     0.00     135     40.7
  36   16:20   54.8    40   18.6   120     26.4    870.7     0.00     167     40.8
  36   16:30   53.7    43   15.9   116     25.5    870.7     0.00      79     40.8
  36   16:40   53.8    42   15.2   119     23.0    870.5     0.00     134     40.9
  36   16:50   56.8    30   15.1   137     24.3    870.4     0.00     102     40.9
  36   17:00   57.1    29   14.1   143     23.4    870.3     0.00      57     41.0
  36   17:10   56.6    28   15.8   141     23.8    870.3     0.00      18     41.0
  36   17:20   55.6    29   13.9   150     19.5    870.4     0.00       6     41.1
  36   17:30   55.0    30   16.3   156     21.9    870.4     0.00       2     41.1
  36   17:40   54.9    30   17.5   155     25.3    870.4     0.00       1     41.1
  36   17:50   54.1    32   15.0   149     21.0    870.5     0.00       0     41.2
  36   18:00   52.0    41   16.5   128     26.5    870.6     0.00       0     41.2
  36   18:10   50.4    46   19.8   130     29.4    870.5     0.00       0     41.3
  36   18:20   50.8    44   20.2   127     28.1    870.3     0.00       0     41.3
  36   18:30   50.9    44   19.7   131     27.5    870.2     0.00       0     41.4
  36   18:40   50.4    46   18.3   133     27.2    870.2     0.00       0     41.4
  36   18:50   49.7    48   19.3   127     27.2    869.9     0.00       0     41.4
  36   19:00   48.9    50   13.2   145     18.9    870.0     0.00       0     41.4
  36   19:10   47.4    52    7.8   165     12.7    870.2     0.00       0     41.5
  36   19:20   47.4    52    9.8   140     16.2    870.1     0.00       0     41.5
  36   19:30   47.7    50    8.9   143     17.4    869.8     0.00       0     41.5
  36   19:40   47.5    52   12.5   139     20.0    869.5     0.00       0     41.6
  36   19:50   48.0    46   11.3   154     21.9    869.4     0.00       0     41.6
  36   20:00   50.7    38   17.0   171     25.1    869.4     0.00       0     41.6
  36   20:10   50.8    38   17.3   169     27.5    869.5     0.00       0     41.7
  36   20:20   51.0    36   16.2   168     25.1    869.7     0.00       0     41.7

Return to Blowing Sand Mountains graphs page.


Western Regional Climate Center,wrcc@dri.edu